Time;durP1;ratioP1;P1;durP2;ratioP2;P2;SDS_P1;SDS_P2;PMS_P1;PMS_P2;Temp;Humidity;BMP_temperature;BMP_pressure;BME280_temperature;BME280_humidity;BME280_pressure;Samples;Min_cycle;Max_cycle;Signal;HPM_P1;HPM_P2
2022/07/20 00:01:13;;;;;;;;;;;;;;;-144.99;45.00;52011.94;5029425;28;19925;-70
2022/07/20 00:03:41;;;;;;;;;;;;;;;-144.99;45.04;52044.53;5025763;28;19923;-70
2022/07/20 00:06:08;;;;;;;;;;;;;;;-144.99;44.82;52060.84;4992220;28;19930;-70
2022/07/20 00:11:26;;;;;;;;;;;;;;;-144.99;44.86;52044.53;4996598;28;19953;-74
2022/07/20 00:13:55;;;;;;;;;;;;;;;-144.99;44.65;52048.63;5017594;28;20395;-74
2022/07/20 00:16:23;;;;;;;;;;;;;;;-144.99;44.87;52056.78;4987888;28;19940;-73
2022/07/20 00:18:50;;;;;;;;;;;;;;;-144.99;44.97;52060.84;4982426;28;19949;-73
2022/07/20 00:21:16;;;;;;;;;;;;;;;-144.99;44.86;52018.03;5002620;28;19969;-73
2022/07/20 00:23:44;;;;;;;;;;;;;;;-144.99;45.11;52028.22;5013268;28;19956;-73
2022/07/20 00:26:11;;;;;;;;;;;;;;;-144.99;44.72;52048.63;4997812;28;19930;-72
2022/07/20 00:28:37;;;;;;;;;;;;;;;-144.99;44.80;51991.56;4994000;28;19937;-70
2022/07/20 00:31:04;;;;;;;;;;;;;;;-144.99;44.64;52040.47;4981943;28;19933;-72
2022/07/20 00:33:31;;;;;;;;;;;;;;;-144.99;44.68;52073.06;5002275;28;20335;-73
2022/07/20 00:35:57;;;;;;;;;;;;;;;-144.99;44.75;52054.72;4982599;28;19972;-72
2022/07/20 00:38:24;;;;;;;;;;;;;;;-144.99;44.79;52034.34;4984132;28;19930;-72
2022/07/20 00:40:52;;;;;;;;;;;;;;;-144.99;44.67;52032.31;5029654;28;19930;-72
2022/07/20 00:43:18;;;;;;;;;;;;;;;-144.99;44.69;52028.22;5025714;28;19928;-71
2022/07/20 00:45:45;;;;;;;;;;;;;;;-144.99;44.64;52024.16;4988268;28;19979;-70
2022/07/20 00:48:12;;;;;;;;;;;;;;;-144.99;44.70;52056.78;5002420;28;19926;-72
2022/07/20 00:50:38;;;;;;;;;;;;;;;-144.99;44.66;52064.91;5013461;28;19928;-72
2022/07/20 00:53:05;;;;;;;;;;;;;;;-144.99;44.68;52024.16;4998337;28;19936;-72
2022/07/20 00:55:32;;;;;;;;;;;;;;;-144.99;44.83;52038.44;4993915;28;20014;-70
2022/07/20 00:57:59;;;;;;;;;;;;;;;-144.99;44.64;52028.22;4983732;28;20014;-72
2022/07/20 01:00:26;;;;;;;;;;;;;;;-144.99;44.67;52060.84;5017381;28;19924;-72
2022/07/20 01:02:53;;;;;;;;;;;;;;;-144.99;44.65;52042.50;5040700;28;20368;-72
2022/07/20 01:05:19;;;;;;;;;;;;;;;-144.99;44.48;52042.50;5025621;28;19934;-74
2022/07/20 01:07:48;;;;;;;;;;;;;;;-144.99;44.66;52020.09;4983852;28;19979;-71
2022/07/20 01:10:15;;;;;;;;;;;;;;;-144.99;44.64;52007.84;4985880;28;19926;-71
2022/07/20 01:12:44;;;;;;;;;;;;;;;-144.99;44.76;52056.78;4997555;28;19926;-72
2022/07/20 01:15:12;;;;;;;;;;;;;;;-144.99;44.71;52024.16;4997597;28;20346;-71
2022/07/20 01:17:38;;;;;;;;;;;;;;;-144.99;44.71;52081.22;4986939;28;20393;-72
2022/07/20 01:20:06;;;;;;;;;;;;;;;-144.99;44.95;52069.00;5022974;28;20153;-75
2022/07/20 01:22:33;;;;;;;;;;;;;;;-144.99;44.86;52016.00;5036130;28;19926;-73
2022/07/20 01:25:00;;;;;;;;;;;;;;;-144.99;44.89;52064.91;5017196;28;19926;-72
2022/07/20 01:27:27;;;;;;;;;;;;;;;-144.99;44.80;52030.28;4982578;28;20018;-75
2022/07/20 01:29:53;;;;;;;;;;;;;;;-144.99;44.81;52062.88;4987773;28;20012;-74
2022/07/20 01:32:20;;;;;;;;;;;;;;;-144.99;44.91;52030.28;5032428;28;19926;-74
2022/07/20 01:34:46;;;;;;;;;;;;;;;-144.99;44.86;52064.91;5026875;28;19959;-74
2022/07/20 01:37:12;;;;;;;;;;;;;;;-144.99;44.75;52040.47;5001314;28;19982;-73
2022/07/20 01:39:40;;;;;;;;;;;;;;;-144.99;44.79;52048.63;5026333;28;19933;-72
2022/07/20 01:42:07;;;;;;;;;;;;;;;-144.99;44.59;52048.63;5023591;28;19926;-73
2022/07/20 01:44:34;;;;;;;;;;;;;;;-144.99;44.73;52058.81;4994984;28;20174;-71
2022/07/20 01:47:00;;;;;;;;;;;;;;;-144.99;44.57;52036.38;4990593;28;19933;-72
2022/07/20 01:49:28;;;;;;;;;;;;;;;-144.99;44.75;52048.63;5007760;28;19924;-73
2022/07/20 01:51:54;;;;;;;;;;;;;;;-144.99;44.65;52073.06;4992673;28;20013;-74
2022/07/20 01:54:20;;;;;;;;;;;;;;;-144.99;44.59;52058.81;5001085;28;20031;-73
2022/07/20 01:56:48;;;;;;;;;;;;;;;-144.99;44.72;52048.63;5033936;28;20021;-73
2022/07/20 01:59:15;;;;;;;;;;;;;;;-144.99;44.64;52064.91;4997281;28;20351;-73
2022/07/20 02:01:41;;;;;;;;;;;;;;;-144.99;44.83;52056.78;4985421;28;20269;-73
2022/07/20 02:04:08;;;;;;;;;;;;;;;-144.99;44.75;52034.34;5010894;28;20025;-74
2022/07/20 02:06:34;;;;;;;;;;;;;;;-144.99;44.81;52085.31;5019053;28;19959;-74
2022/07/20 02:09:01;;;;;;;;;;;;;;;-144.99;44.97;52038.44;5029975;28;19932;-72
2022/07/20 02:11:28;;;;;;;;;;;;;;;-144.99;45.05;52036.38;4986745;28;19929;-74
2022/07/20 02:13:55;;;;;;;;;;;;;;;-144.99;44.90;52036.38;5020944;28;20027;-73
2022/07/20 02:16:22;;;;;;;;;;;;;;;-144.99;45.05;52064.91;5031344;28;19964;-73
2022/07/20 02:18:49;;;;;;;;;;;;;;;-144.99;45.16;52048.63;5042258;28;20083;-73
2022/07/20 02:21:16;;;;;;;;;;;;;;;-144.99;45.17;52060.84;4996456;28;19959;-72
2022/07/20 02:23:43;;;;;;;;;;;;;;;-144.99;45.18;52030.28;5007917;28;19967;-72
2022/07/20 02:26:09;;;;;;;;;;;;;;;-144.99;45.20;52071.03;5009877;28;19929;-73
2022/07/20 02:28:36;;;;;;;;;;;;;;;-144.99;45.23;52052.69;5040513;28;19932;-72
2022/07/20 02:31:05;;;;;;;;;;;;;;;-144.99;45.21;52056.78;5025173;28;19948;-74
2022/07/20 02:36:03;;;;;;;;;;;;;;;-144.99;45.33;52069.00;5070125;28;19955;-79
2022/07/20 02:38:30;;;;;;;;;;;;;;;-144.99;45.44;52028.22;5070752;28;19970;-79
2022/07/20 02:40:56;;;;;;;;;;;;;;;-144.99;45.46;52058.81;5074390;28;19928;-77
2022/07/20 02:43:23;;;;;;;;;;;;;;;-144.99;45.45;52048.63;5068996;28;20202;-80
2022/07/20 02:45:50;;;;;;;;;;;;;;;-144.99;45.64;52048.63;5070695;28;20000;-78
2022/07/20 02:48:17;;;;;;;;;;;;;;;-144.99;45.63;52073.06;5058428;28;19924;-80
2022/07/20 02:50:44;;;;;;;;;;;;;;;-144.99;45.79;52077.16;5055095;28;19925;-76
2022/07/20 02:53:11;;;;;;;;;;;;;;;-144.99;46.01;52073.06;5061719;28;19932;-80
2022/07/20 02:55:38;;;;;;;;;;;;;;;-144.99;46.06;52024.16;5045850;28;19950;-77
2022/07/20 02:58:05;;;;;;;;;;;;;;;-144.99;46.10;52060.84;5050834;28;20006;-77
2022/07/20 03:00:31;;;;;;;;;;;;;;;-144.99;46.30;52048.63;5052347;28;19928;-80
2022/07/20 03:02:58;;;;;;;;;;;;;;;-144.99;46.43;52069.00;5050011;28;20310;-78
2022/07/20 03:05:27;;;;;;;;;;;;;;;-144.99;46.75;52056.78;5051757;28;20475;-79
2022/07/20 03:07:53;;;;;;;;;;;;;;;-144.99;46.74;52081.22;5050944;28;20388;-79
2022/07/20 03:10:20;;;;;;;;;;;;;;;-144.99;46.90;52060.84;5054427;28;20543;-78
2022/07/20 03:12:47;;;;;;;;;;;;;;;-144.99;46.83;52064.91;5054136;28;19975;-80
2022/07/20 03:15:13;;;;;;;;;;;;;;;-144.99;46.95;52085.31;5051575;28;19924;-78
2022/07/20 03:17:44;;;;;;;;;;;;;;;-144.99;47.17;52064.91;5049322;28;19925;-75
2022/07/20 03:20:11;;;;;;;;;;;;;;;-144.99;47.22;52048.63;5050173;28;20328;-78
2022/07/20 03:22:39;;;;;;;;;;;;;;;-144.99;47.35;52077.16;5049395;28;19924;-79
2022/07/20 03:25:06;;;;;;;;;;;;;;;-144.99;47.33;52069.00;5051404;28;20125;-79
2022/07/20 03:27:33;;;;;;;;;;;;;;;-144.99;47.41;52069.00;5050141;28;19925;-76
2022/07/20 03:29:59;;;;;;;;;;;;;;;-144.99;47.51;52101.59;5047940;28;19925;-77
2022/07/20 03:32:26;;;;;;;;;;;;;;;-144.99;47.66;52126.06;5047740;28;20000;-77
2022/07/20 03:34:52;;;;;;;;;;;;;;;-144.99;47.64;52093.44;5047477;28;19953;-76
2022/07/20 03:37:19;;;;;;;;;;;;;;;-144.99;47.68;52064.91;5047535;28;20379;-76
2022/07/20 03:39:46;;;;;;;;;;;;;;;-144.99;47.70;52052.69;5048183;28;20008;-77
2022/07/20 03:42:13;;;;;;;;;;;;;;;-144.99;47.76;52089.38;5054324;28;19928;-78
2022/07/20 03:44:39;;;;;;;;;;;;;;;-144.99;47.66;52081.22;5048633;28;19936;-77
2022/07/20 03:47:06;;;;;;;;;;;;;;;-144.99;47.77;52052.69;5049672;28;19925;-77
2022/07/20 03:49:33;;;;;;;;;;;;;;;-144.99;47.73;52081.22;5050045;28;20368;-75
2022/07/20 03:51:59;;;;;;;;;;;;;;;-144.99;47.86;52097.53;5050853;28;19925;-77
2022/07/20 03:54:26;;;;;;;;;;;;;;;-144.99;48.00;52091.41;5048423;28;19928;-76
2022/07/20 03:56:54;;;;;;;;;;;;;;;-144.99;48.07;52060.84;5048509;28;20268;-77
2022/07/20 03:59:20;;;;;;;;;;;;;;;-144.99;48.30;52077.16;5044151;28;20001;-77
2022/07/20 04:01:47;;;;;;;;;;;;;;;-144.99;48.14;52079.19;5046569;28;19932;-77
2022/07/20 04:04:13;;;;;;;;;;;;;;;-144.99;48.32;52064.91;5048064;28;19925;-77
2022/07/20 04:06:40;;;;;;;;;;;;;;;-144.99;48.41;52062.88;5049872;28;19929;-77
2022/07/20 04:09:06;;;;;;;;;;;;;;;-144.99;48.55;52109.75;5051371;28;19924;-78
2022/07/20 04:11:33;;;;;;;;;;;;;;;-144.99;48.56;52093.44;5051778;28;20664;-76
2022/07/20 04:14:01;;;;;;;;;;;;;;;-144.99;48.57;52077.16;5057087;28;19913;-77
2022/07/20 04:16:27;;;;;;;;;;;;;;;-144.99;48.62;52026.19;5053242;28;20431;-79
2022/07/20 04:18:54;;;;;;;;;;;;;;;-144.99;48.51;52058.81;5054238;28;19971;-78
2022/07/20 04:21:20;;;;;;;;;;;;;;;-144.99;48.37;52105.69;5047002;28;19928;-76
2022/07/20 04:23:47;;;;;;;;;;;;;;;-144.99;48.50;52054.72;5049982;28;19990;-76
2022/07/20 04:26:13;;;;;;;;;;;;;;;-144.99;48.32;52052.69;5061997;28;20466;-76
2022/07/20 04:28:40;;;;;;;;;;;;;;;-144.99;48.29;52069.00;5066168;28;19929;-76
2022/07/20 04:31:08;;;;;;;;;;;;;;;-144.99;48.30;52060.84;5045493;28;19940;-71
2022/07/20 04:33:34;;;;;;;;;;;;;;;-144.99;48.09;52056.78;5045670;28;19929;-70
2022/07/20 04:36:01;;;;;;;;;;;;;;;-144.99;48.02;52062.88;5050294;28;20446;-69
2022/07/20 04:38:27;;;;;;;;;;;;;;;-144.99;47.86;52052.69;5040635;28;19928;-69
2022/07/20 04:40:54;;;;;;;;;;;;;;;-144.99;47.75;52050.66;5046971;28;19944;-69
2022/07/20 04:43:20;;;;;;;;;;;;;;;-144.99;47.61;52020.09;5044227;28;20252;-68
2022/07/20 04:45:47;;;;;;;;;;;;;;;-144.99;47.61;52032.31;5045549;28;19956;-69
2022/07/20 04:48:15;;;;;;;;;;;;;;;-144.99;47.61;52048.63;5045726;28;20265;-72
2022/07/20 04:50:41;;;;;;;;;;;;;;;-144.99;47.60;52050.66;5049579;28;19924;-71
2022/07/20 04:53:08;;;;;;;;;;;;;;;-144.99;47.54;52052.69;5047464;28;19941;-71
2022/07/20 04:55:34;;;;;;;;;;;;;;;-144.99;47.37;52032.31;5045528;28;19925;-71
2022/07/20 04:58:01;;;;;;;;;;;;;;;-144.99;47.33;52016.00;5044393;28;20031;-69
2022/07/20 05:00:27;;;;;;;;;;;;;;;-144.99;47.12;52056.78;5045511;28;19939;-72
2022/07/20 05:02:54;;;;;;;;;;;;;;;-144.99;46.99;52054.72;5048241;28;19964;-72
2022/07/20 05:05:22;;;;;;;;;;;;;;;-144.99;47.02;52038.44;4345915;28;10000706;-72
2022/07/20 05:07:48;;;;;;;;;;;;;;;-144.99;46.86;52016.00;5041840;28;19987;-73
2022/07/20 05:10:15;;;;;;;;;;;;;;;-144.99;46.77;52026.19;5035298;28;20011;-72
2022/07/20 05:12:41;;;;;;;;;;;;;;;-144.99;46.58;52060.84;5037696;28;20031;-72
2022/07/20 05:15:08;;;;;;;;;;;;;;;-144.99;46.63;52020.09;5042465;28;19935;-71
2022/07/20 05:17:35;;;;;;;;;;;;;;;-144.99;46.38;51991.56;5042165;28;19986;-73
2022/07/20 05:20:01;;;;;;;;;;;;;;;-144.99;46.25;52048.63;5043135;28;20034;-71
2022/07/20 05:22:30;;;;;;;;;;;;;;;-144.99;46.25;52040.47;5041724;28;19986;-70
2022/07/20 05:24:56;;;;;;;;;;;;;;;-144.99;46.16;52011.94;5041743;28;20333;-72
2022/07/20 05:27:23;;;;;;;;;;;;;;;-144.99;46.41;52003.78;5041459;28;20037;-73
2022/07/20 05:29:49;;;;;;;;;;;;;;;-144.99;46.19;52016.00;5040987;28;20164;-71
2022/07/20 05:32:16;;;;;;;;;;;;;;;-144.99;45.97;51999.69;5046875;28;19928;-73
2022/07/20 05:34:43;;;;;;;;;;;;;;;-144.99;45.94;52040.47;5042305;28;19936;-76
2022/07/20 05:37:09;;;;;;;;;;;;;;;-144.99;45.78;52003.78;5041851;28;19928;-75
2022/07/20 05:39:37;;;;;;;;;;;;;;;-144.99;45.79;52034.34;5042268;28;20240;-76
2022/07/20 05:42:04;;;;;;;;;;;;;;;-144.99;45.70;52024.16;5043490;28;20002;-76
2022/07/20 05:44:31;;;;;;;;;;;;;;;-144.99;46.22;52038.44;5041744;28;20379;-76
2022/07/20 05:46:57;;;;;;;;;;;;;;;-144.99;45.91;52007.84;5043028;28;19959;-76
2022/07/20 05:49:24;;;;;;;;;;;;;;;-144.99;45.67;52016.00;5043306;28;19929;-77
2022/07/20 05:51:50;;;;;;;;;;;;;;;-144.99;45.67;51987.47;5045188;28;19940;-73
2022/07/20 05:54:17;;;;;;;;;;;;;;;-144.99;45.70;52005.81;5042358;28;20451;-73
2022/07/20 05:56:45;;;;;;;;;;;;;;;-144.99;45.58;51977.28;5043554;28;20123;-73
2022/07/20 05:59:11;;;;;;;;;;;;;;;-144.99;45.47;52030.28;5045534;28;20398;-76
2022/07/20 06:01:43;;;;;;;;;;;;;;;-144.99;45.03;52024.16;5044963;28;20414;-73
2022/07/20 06:04:10;;;;;;;;;;;;;;;-144.99;45.06;52003.78;5045959;28;19987;-74
2022/07/20 06:06:36;;;;;;;;;;;;;;;-144.99;44.90;51991.56;5045684;28;19982;-77
2022/07/20 06:09:03;;;;;;;;;;;;;;;-144.99;44.79;51987.47;5047974;28;20435;-75
2022/07/20 06:11:30;;;;;;;;;;;;;;;-144.99;44.58;51987.47;5044607;28;19964;-72
2022/07/20 06:13:58;;;;;;;;;;;;;;;-144.99;44.71;51995.63;5044469;28;20089;-74
2022/07/20 06:16:24;;;;;;;;;;;;;;;-144.99;44.55;51973.22;5045188;28;19964;-75
2022/07/20 06:18:51;;;;;;;;;;;;;;;-144.99;44.48;51991.56;5046286;28;19928;-75
2022/07/20 06:21:17;;;;;;;;;;;;;;;-144.99;44.28;51975.25;5043987;28;20368;-75
2022/07/20 06:23:44;;;;;;;;;;;;;;;-144.99;44.50;51979.31;5037433;28;20020;-76
2022/07/20 06:26:10;;;;;;;;;;;;;;;-144.99;43.86;51981.38;5044857;28;20435;-73
2022/07/20 06:28:37;;;;;;;;;;;;;;;-144.99;43.17;51963.03;5042993;28;20170;-77
2022/07/20 06:31:06;;;;;;;;;;;;;;;-144.99;43.25;51946.72;5042843;28;19974;-76
2022/07/20 06:33:33;;;;;;;;;;;;;;;-144.99;43.16;51971.16;5044667;28;19933;-75
2022/07/20 06:35:59;;;;;;;;;;;;;;;-144.99;42.93;51942.63;5049793;28;20420;-76
2022/07/20 06:38:26;;;;;;;;;;;;;;;-144.99;42.07;51967.09;5050077;28;19974;-76
2022/07/20 06:40:52;;;;;;;;;;;;;;;-144.99;42.16;51971.16;5048944;28;20453;-77
2022/07/20 06:43:19;;;;;;;;;;;;;;;-144.99;41.62;52003.78;5043146;28;19924;-77
2022/07/20 06:45:47;;;;;;;;;;;;;;;-144.99;41.77;51979.31;5045349;28;20376;-76
2022/07/20 06:48:14;;;;;;;;;;;;;;;-144.99;41.82;51950.78;5044678;28;20762;-74
2022/07/20 06:50:41;;;;;;;;;;;;;;;-144.99;42.27;51969.13;5044536;28;20307;-76
2022/07/20 06:53:07;;;;;;;;;;;;;;;-144.99;41.66;51942.63;4696080;28;9999646;-78
2022/07/20 06:55:34;;;;;;;;;;;;;;;-144.99;41.34;51910.03;5037329;28;20434;-74
2022/07/20 06:58:00;;;;;;;;;;;;;;;-144.99;40.83;51983.41;4694161;28;9999977;-77
2022/07/20 07:00:27;;;;;;;;;;;;;;;-144.99;40.71;51944.69;5043485;28;20517;-78
2022/07/20 07:02:54;;;;;;;;;;;;;;;-144.99;40.77;51930.41;5043941;28;20032;-77
2022/07/20 07:05:22;;;;;;;;;;;;;;;-144.99;40.50;51934.50;5044980;28;20315;-77
2022/07/20 07:07:48;;;;;;;;;;;;;;;-144.99;39.98;51954.88;5044554;28;19925;-76
2022/07/20 07:10:15;;;;;;;;;;;;;;;-144.99;39.78;51950.78;5044419;28;19929;-75
2022/07/20 07:12:41;;;;;;;;;;;;;;;-144.99;40.17;51918.19;5038792;28;20500;-76
2022/07/20 07:15:08;;;;;;;;;;;;;;;-144.99;39.18;51922.25;5046174;28;19939;-76
2022/07/20 07:17:35;;;;;;;;;;;;;;;-144.99;39.23;51940.59;5055580;28;19925;-73
2022/07/20 07:20:01;;;;;;;;;;;;;;;-144.99;39.23;51934.50;5061272;28;19929;-76
2022/07/20 07:22:30;;;;;;;;;;;;;;;-144.99;39.30;51958.94;5050034;28;19982;-76
2022/07/20 07:24:57;;;;;;;;;;;;;;;-144.99;38.76;51930.41;5049097;28;19928;-77
2022/07/20 07:27:23;;;;;;;;;;;;;;;-144.99;38.86;51946.72;5043090;28;19928;-76
2022/07/20 07:29:50;;;;;;;;;;;;;;;-144.99;38.31;51910.03;5043639;28;19974;-75
2022/07/20 07:32:16;;;;;;;;;;;;;;;-144.99;38.42;51905.97;5044165;28;19936;-77
2022/07/20 07:34:43;;;;;;;;;;;;;;;-144.99;38.15;51963.03;5043279;28;20161;-78
2022/07/20 07:37:09;;;;;;;;;;;;;;;-144.99;38.24;51922.25;5048467;28;19960;-77
2022/07/20 07:39:37;;;;;;;;;;;;;;;-144.99;37.69;51910.03;5043748;28;20384;-75
2022/07/20 07:42:04;;;;;;;;;;;;;;;-144.99;37.63;51912.06;5040648;28;19971;-74
2022/07/20 07:44:30;;;;;;;;;;;;;;;-144.99;37.80;51897.81;5041499;28;20015;-77
2022/07/20 07:46:57;;;;;;;;;;;;;;;-144.99;37.28;51891.69;5043045;28;19995;-76
2022/07/20 07:49:23;;;;;;;;;;;;;;;-144.99;37.43;51942.63;5044559;28;20494;-76
2022/07/20 07:51:50;;;;;;;;;;;;;;;-144.99;37.57;51903.91;5044146;28;19986;-74
2022/07/20 07:54:16;;;;;;;;;;;;;;;-144.99;37.10;51918.19;5044355;28;20348;-74
2022/07/20 07:56:44;;;;;;;;;;;;;;;-144.99;37.19;51897.81;5040950;28;19929;-76
2022/07/20 07:59:11;;;;;;;;;;;;;;;-144.99;36.77;51879.47;5032818;28;20011;-77
2022/07/20 08:01:37;;;;;;;;;;;;;;;-144.99;36.59;51934.50;5041547;28;20288;-76
2022/07/20 08:04:04;;;;;;;;;;;;;;;-144.99;36.92;51910.03;5046508;28;20195;-76
2022/07/20 08:06:31;;;;;;;;;;;;;;;-144.99;36.61;51893.72;5045247;28;19940;-74
2022/07/20 08:08:58;;;;;;;;;;;;;;;-144.99;36.41;51920.22;5043496;28;19933;-72
2022/07/20 08:11:24;;;;;;;;;;;;;;;-144.99;37.13;51891.69;5043334;28;19928;-75
2022/07/20 08:13:55;;;;;;;;;;;;;;;-144.99;36.89;51881.50;5043434;28;20418;-75
2022/07/20 08:16:22;;;;;;;;;;;;;;;-144.99;36.94;51901.88;5049495;28;19986;-75
2022/07/20 08:18:48;;;;;;;;;;;;;;;-144.99;36.63;51903.91;5059947;28;19935;-77
2022/07/20 08:21:15;;;;;;;;;;;;;;;-144.99;36.74;51889.66;5065463;28;19929;-77
2022/07/20 08:23:41;;;;;;;;;;;;;;;-144.99;36.17;51857.03;5066545;28;20198;-77
2022/07/20 08:26:08;;;;;;;;;;;;;;;-144.99;36.57;51820.38;5064013;28;19931;-74
2022/07/20 08:28:34;;;;;;;;;;;;;;;-144.99;36.28;51893.72;5063769;28;19928;-78
2022/07/20 08:31:04;;;;;;;;;;;;;;;-144.99;36.55;51848.91;5063907;28;19982;-77
2022/07/20 08:33:31;;;;;;;;;;;;;;;-144.99;36.10;51865.19;5063134;28;19935;-74
2022/07/20 08:35:58;;;;;;;;;;;;;;;-144.99;36.02;51885.56;5072126;22;19936;-74
2022/07/20 08:38:24;;;;;;;;;;;;;;;-144.99;36.26;51857.03;5035594;28;20011;-73
2022/07/20 08:40:51;;;;;;;;;;;;;;;-144.99;35.24;51873.34;5041748;28;20091;-74
2022/07/20 08:43:18;;;;;;;;;;;;;;;-144.99;35.99;51840.75;5040506;28;20047;-73
2022/07/20 08:45:46;;;;;;;;;;;;;;;-144.99;35.90;51857.03;5041245;28;20020;-73
2022/07/20 08:48:18;;;;;;;;;;;;;;;-144.99;35.34;51863.16;5043807;28;19928;-75
2022/07/20 08:50:45;;;;;;;;;;;;;;;-144.99;35.31;51840.75;5032212;28;19983;-73
2022/07/20 08:53:11;;;;;;;;;;;;;;;-144.99;35.03;51832.59;5032460;28;19961;-73
2022/07/20 08:55:38;;;;;;;;;;;;;;;-144.99;35.02;51869.28;5041470;28;19929;-75
2022/07/20 08:58:04;;;;;;;;;;;;;;;-144.99;34.45;51836.66;5037917;28;20014;-72
2022/07/20 09:00:31;;;;;;;;;;;;;;;-144.99;34.83;51840.75;5039963;28;19972;-73
2022/07/20 09:03:01;;;;;;;;;;;;;;;-144.99;34.96;51799.97;5035316;28;20043;-73
2022/07/20 09:05:30;;;;;;;;;;;;;;;-144.99;34.57;51816.28;5037960;28;20225;-73
2022/07/20 09:07:57;;;;;;;;;;;;;;;-144.99;34.41;51824.44;5041405;28;20356;-72
2022/07/20 09:10:25;;;;;;;;;;;;;;;-144.99;34.87;51820.38;5039630;28;19928;-73
2022/07/20 09:12:52;;;;;;;;;;;;;;;-144.99;34.24;51808.13;5040476;28;20415;-74
2022/07/20 09:15:26;;;;;;;;;;;;;;;-144.99;34.06;51812.22;5033945;28;19943;-72
2022/07/20 09:18:01;;;;;;;;;;;;;;;-144.99;34.21;51836.66;5041928;28;19937;-75
2022/07/20 09:20:31;;;;;;;;;;;;;;;-144.99;34.70;51836.66;5040532;28;19987;-74
2022/07/20 09:23:00;;;;;;;;;;;;;;;-144.99;33.86;51791.84;5035819;28;19972;-72
2022/07/20 09:25:27;;;;;;;;;;;;;;;-144.99;33.79;51791.84;5034852;28;19936;-73
2022/07/20 09:27:53;;;;;;;;;;;;;;;-144.99;34.02;51791.84;5042656;28;20020;-74
2022/07/20 09:30:19;;;;;;;;;;;;;;;-144.99;33.64;51791.84;5038407;28;19933;-74
2022/07/20 09:32:50;;;;;;;;;;;;;;;-144.99;34.12;51795.91;5039062;28;19976;-74
2022/07/20 09:35:16;;;;;;;;;;;;;;;-144.99;33.78;51812.22;5033656;28;19933;-74
2022/07/20 09:37:44;;;;;;;;;;;;;;;-144.99;33.96;51767.38;5040889;28;20493;-74
2022/07/20 09:40:11;;;;;;;;;;;;;;;-144.99;33.49;51787.75;5037346;28;19948;-73
2022/07/20 09:42:38;;;;;;;;;;;;;;;-144.99;33.81;51789.78;5037079;28;20438;-72
2022/07/20 09:45:18;;;;;;;;;;;;;;;-144.99;33.39;51775.53;5037593;28;19939;-72
2022/07/20 09:48:00;;;;;;;;;;;;;;;-144.99;33.07;51763.31;5044966;28;20446;-75
2022/07/20 09:50:30;;;;;;;;;;;;;;;-144.99;33.64;51781.63;5058536;28;20020;-73
2022/07/20 09:52:59;;;;;;;;;;;;;;;-144.99;33.03;51747.00;5069663;28;19946;-75
2022/07/20 09:55:26;;;;;;;;;;;;;;;-144.99;32.83;51797.94;5073828;28;19912;-75
2022/07/20 09:57:53;;;;;;;;;;;;;;;-144.99;32.86;51789.78;5067387;28;19933;-72
2022/07/20 10:00:20;;;;;;;;;;;;;;;-144.99;32.74;51730.69;5073168;28;19913;-73
2022/07/20 10:02:48;;;;;;;;;;;;;;;-144.99;33.02;51763.31;5069787;28;19936;-74
2022/07/20 10:05:14;;;;;;;;;;;;;;;-144.99;32.95;51757.19;5073079;28;19939;-74
2022/07/20 10:07:42;;;;;;;;;;;;;;;-144.99;32.62;51698.09;5068019;28;19913;-74
2022/07/20 10:10:11;;;;;;;;;;;;;;;-144.99;32.31;51755.16;5067224;28;19964;-75
2022/07/20 10:12:38;;;;;;;;;;;;;;;-144.99;32.21;51724.59;5072626;28;19929;-76
2022/07/20 10:15:06;;;;;;;;;;;;;;;-144.99;31.87;51726.63;5073021;28;19916;-74
2022/07/20 10:17:33;;;;;;;;;;;;;;;-144.99;32.37;51757.19;5072189;28;19923;-74
2022/07/20 10:20:00;;;;;;;;;;;;;;;-144.99;31.98;51734.78;5069395;28;19983;-75
2022/07/20 10:22:27;;;;;;;;;;;;;;;-144.99;32.26;51722.53;5055967;28;19948;-74
2022/07/20 10:25:08;;;;;;;;;;;;;;;-144.99;31.82;51742.91;5065538;28;19924;-74
2022/07/20 10:27:36;;;;;;;;;;;;;;;-144.99;32.41;51728.66;4713980;28;10001567;-74
2022/07/20 10:30:15;;;;;;;;;;;;;;;-144.99;32.37;51738.84;5063981;28;19925;-75
2022/07/20 10:32:51;;;;;;;;;;;;;;;-144.99;32.02;51726.63;5065532;28;19936;-74
2022/07/20 10:35:25;;;;;;;;;;;;;;;-144.99;31.29;51734.78;5057533;28;19988;-75
2022/07/20 10:37:52;;;;;;;;;;;;;;;-144.99;31.63;51718.47;5069357;28;19988;-75
2022/07/20 10:40:21;;;;;;;;;;;;;;;-144.99;31.50;51712.34;5065181;28;19975;-77
2022/07/20 10:42:50;;;;;;;;;;;;;;;-144.99;31.69;51681.78;5057614;28;20113;-74
2022/07/20 10:45:30;;;;;;;;;;;;;;;-144.99;30.60;51649.19;5055480;28;19917;-76
2022/07/20 10:47:57;;;;;;;;;;;;;;;-144.99;30.73;51696.06;5070763;28;19951;-75
2022/07/20 10:50:24;;;;;;;;;;;;;;;-144.99;30.57;51681.78;5065232;28;20097;-75
2022/07/20 10:52:53;;;;;;;;;;;;;;;-144.99;30.92;51675.69;5047430;28;19933;-74
2022/07/20 10:55:38;;;;;;;;;;;;;;;-144.99;29.72;51661.41;5041835;28;19929;-74
2022/07/20 10:58:07;;;;;;;;;;;;;;;-144.99;29.74;51698.09;5040897;28;19975;-73
2022/07/20 11:00:34;;;;;;;;;;;;;;;-144.99;29.63;51649.19;5044574;28;20260;-75
2022/07/20 11:03:01;;;;;;;;;;;;;;;-144.99;29.04;51661.41;5041439;28;19939;-75
2022/07/20 11:05:28;;;;;;;;;;;;;;;-144.99;29.02;51649.19;5045850;28;19933;-74
2022/07/20 11:07:54;;;;;;;;;;;;;;;-144.99;30.05;51669.56;5042862;28;19975;-75
2022/07/20 11:10:22;;;;;;;;;;;;;;;-144.99;29.48;51659.38;5034395;28;19933;-74
2022/07/20 11:12:56;;;;;;;;;;;;;;;-144.99;29.01;51624.72;5043494;28;19967;-76
2022/07/20 11:15:27;;;;;;;;;;;;;;;-144.99;28.74;51614.53;5042245;28;19928;-75
2022/07/20 11:17:56;;;;;;;;;;;;;;;-144.99;28.97;51624.72;5045293;28;19928;-74
2022/07/20 11:20:23;;;;;;;;;;;;;;;-144.99;28.80;51624.72;5046103;28;19928;-74
2022/07/20 11:22:49;;;;;;;;;;;;;;;-144.99;29.04;51628.81;5044854;28;20356;-72
2022/07/20 11:25:16;;;;;;;;;;;;;;;-144.99;29.08;51639.00;5042435;28;19929;-74
2022/07/20 11:27:58;;;;;;;;;;;;;;;-144.99;28.98;51636.97;5044275;28;20393;-74
2022/07/20 11:30:33;;;;;;;;;;;;;;;-144.99;28.15;51608.44;5043550;28;20029;-74
2022/07/20 11:33:00;;;;;;;;;;;;;;;-144.99;28.89;51616.56;5039516;28;20016;-72
2022/07/20 11:35:26;;;;;;;;;;;;;;;-144.99;28.97;51616.56;5039438;28;20255;-72
2022/07/20 11:37:53;;;;;;;;;;;;;;;-144.99;29.21;51616.56;5044040;28;19929;-74
2022/07/20 11:40:21;;;;;;;;;;;;;;;-144.99;28.68;51681.78;5046865;28;19940;-74
2022/07/20 11:43:03;;;;;;;;;;;;;;;-144.99;28.93;51673.63;5037493;28;20025;-75
2022/07/20 11:45:29;;;;;;;;;;;;;;;-144.99;28.71;51653.25;5036638;28;20110;-73
2022/07/20 11:47:57;;;;;;;;;;;;;;;-144.99;29.04;51616.56;5040628;28;19932;-75
2022/07/20 11:50:31;;;;;;;;;;;;;;;-144.99;28.87;51594.16;5040564;28;20016;-73
2022/07/20 11:52:57;;;;;;;;;;;;;;;-144.99;28.68;51673.63;5040951;28;20291;-76
2022/07/20 11:55:33;;;;;;;;;;;;;;;-144.99;28.63;51632.88;5046516;28;19928;-74
2022/07/20 11:57:59;;;;;;;;;;;;;;;-144.99;28.69;51645.09;5039617;28;19980;-74
2022/07/20 12:00:26;;;;;;;;;;;;;;;-144.99;29.11;51641.03;5043401;28;19929;-75
2022/07/20 12:02:53;;;;;;;;;;;;;;;-144.99;28.84;51667.53;5038001;28;19983;-73
2022/07/20 12:05:21;;;;;;;;;;;;;;;-144.99;28.60;51641.03;5036135;28;19929;-73
2022/07/20 12:10:33;;;;;;;;;;;;;;;-144.99;28.43;51612.50;5037106;28;19940;-75
2022/07/20 12:13:03;;;;;;;;;;;;;;;-144.99;28.17;51632.88;5034231;28;19960;-75
2022/07/20 12:15:29;;;;;;;;;;;;;;;-144.99;28.04;51632.88;5035199;28;20030;-74
2022/07/20 12:17:56;;;;;;;;;;;;;;;-144.99;28.21;51624.72;5045816;28;19933;-75
2022/07/20 12:20:24;;;;;;;;;;;;;;;-144.99;28.27;51575.81;5035506;28;19928;-75
2022/07/20 12:22:52;;;;;;;;;;;;;;;-144.99;28.14;51600.28;5043069;28;19929;-74
2022/07/20 12:25:19;;;;;;;;;;;;;;;-144.99;27.14;51588.06;5034975;28;20019;-73
2022/07/20 12:27:47;;;;;;;;;;;;;;;-144.99;27.27;51645.09;5040435;28;20404;-72
2022/07/20 12:30:24;;;;;;;;;;;;;;;-144.99;27.59;51602.31;5029651;28;20462;-73
2022/07/20 12:33:02;;;;;;;;;;;;;;;-144.99;26.95;51624.72;5043199;28;20456;-74
2022/07/20 12:35:30;;;;;;;;;;;;;;;-144.99;26.97;51665.50;5034759;28;20327;-75